Time;durP1;ratioP1;P1;durP2;ratioP2;P2;SDS_P1;SDS_P2;PMS_P1;PMS_P2;Temp;Humidity;BMP_temperature;BMP_pressure;BME280_temperature;BME280_humidity;BME280_pressure;Samples;Min_cycle;Max_cycle;Signal;HPM_P1;HPM_P2
2023/11/09 00:01:25;;;;;;;6.60;5.32;;;9.90;99.90;;;;;;7372760;19;20026;-84
2023/11/09 00:03:55;;;;;;;7.55;5.07;;;9.90;99.90;;;;;;7371823;19;20018;-84
2023/11/09 00:06:22;;;;;;;5.70;4.72;;;9.90;99.90;;;;;;7376067;19;20019;-83
2023/11/09 00:08:48;;;;;;;7.72;5.82;;;9.80;99.90;;;;;;7375461;19;20571;-83
2023/11/09 00:11:15;;;;;;;7.43;4.40;;;9.90;99.90;;;;;;7373982;19;20746;-83
2023/11/09 00:13:42;;;;;;;4.85;4.28;;;9.90;99.90;;;;;;7373986;19;20026;-82
2023/11/09 00:16:12;;;;;;;5.15;4.05;;;9.80;99.90;;;;;;7371658;19;20026;-83
2023/11/09 00:18:40;;;;;;;6.15;4.80;;;9.90;99.90;;;;;;7373741;19;20256;-83
2023/11/09 00:21:07;;;;;;;5.72;3.97;;;9.90;99.90;;;;;;7373451;19;20666;-82
2023/11/09 00:23:33;;;;;;;5.50;3.83;;;9.90;99.90;;;;;;7372096;19;20014;-82
2023/11/09 00:26:01;;;;;;;5.57;3.90;;;9.90;99.90;;;;;;7373939;19;20042;-82
2023/11/09 00:28:27;;;;;;;5.93;4.30;;;9.90;99.90;;;;;;7373265;19;20539;-83
2023/11/09 00:30:54;;;;;;;5.40;3.60;;;10.00;99.90;;;;;;7373399;19;20043;-83
2023/11/09 00:33:20;;;;;;;5.72;3.83;;;9.90;99.90;;;;;;7371865;19;20022;-83
2023/11/09 00:35:47;;;;;;;5.95;3.53;;;9.90;99.90;;;;;;7372229;19;20014;-83
2023/11/09 00:38:15;;;;;;;4.40;2.97;;;9.90;99.90;;;;;;7368986;19;20014;-84
2023/11/09 00:40:42;;;;;;;4.95;3.33;;;9.90;99.90;;;;;;7373594;19;20006;-83
2023/11/09 00:43:08;;;;;;;5.38;3.20;;;10.00;99.90;;;;;;7372127;19;20089;-83
2023/11/09 00:45:35;;;;;;;5.15;3.10;;;10.00;99.90;;;;;;7374279;19;20390;-83
2023/11/09 00:48:03;;;;;;;4.60;3.38;;;10.00;99.90;;;;;;7374233;19;20039;-83
2023/11/09 00:50:31;;;;;;;4.50;3.47;;;9.90;99.90;;;;;;7375162;19;20691;-83
2023/11/09 00:52:57;;;;;;;4.90;3.10;;;9.90;99.90;;;;;;7375483;19;20015;-83
2023/11/09 00:55:23;;;;;;;5.68;3.40;;;9.90;99.90;;;;;;7377069;19;20014;-83
2023/11/09 00:57:50;;;;;;;5.55;3.75;;;9.90;99.90;;;;;;7374396;19;20019;-84
2023/11/09 01:00:16;;;;;;;5.72;3.72;;;9.90;99.90;;;;;;7373755;19;20794;-83
2023/11/09 01:02:48;;;;;;;5.78;4.03;;;9.90;99.90;;;;;;7368091;19;20479;-84
2023/11/09 01:05:14;;;;;;;4.65;3.50;;;9.90;99.90;;;;;;7390521;19;20031;-83
2023/11/09 01:07:41;;;;;;;6.05;4.20;;;10.00;99.90;;;;;;7382331;19;20030;-83
2023/11/09 01:10:08;;;;;;;5.07;3.38;;;9.90;99.90;;;;;;7396177;19;20036;-83
2023/11/09 01:12:34;;;;;;;4.47;3.50;;;10.00;99.90;;;;;;7390243;19;20015;-83
2023/11/09 01:15:02;;;;;;;4.78;3.63;;;9.90;99.90;;;;;;7396216;19;20047;-83
2023/11/09 01:17:30;;;;;;;4.80;3.22;;;10.00;99.90;;;;;;7393062;19;20380;-83
2023/11/09 01:20:00;;;;;;;5.72;3.20;;;10.00;99.90;;;;;;7394943;19;20367;-83
2023/11/09 01:22:27;;;;;;;4.90;3.50;;;10.00;99.90;;;;;;7395317;19;20053;-83
2023/11/09 01:24:53;;;;;;;6.30;4.00;;;10.00;99.90;;;;;;7391205;19;20030;-82
2023/11/09 01:27:20;;;;;;;7.00;4.00;;;10.00;99.90;;;;;;7393884;19;20082;-82
2023/11/09 01:29:47;;;;;;;7.00;3.40;;;10.00;99.90;;;;;;7397778;19;20018;-83
2023/11/09 01:32:13;;;;;;;4.30;3.53;;;10.00;99.90;;;;;;7395088;19;20055;-85
2023/11/09 01:34:40;;;;;;;4.75;3.55;;;10.00;99.90;;;;;;7389351;19;20050;-83
2023/11/09 01:37:11;;;;;;;7.40;3.85;;;10.00;99.90;;;;;;7381415;19;20039;-83
2023/11/09 01:39:39;;;;;;;4.82;3.42;;;10.00;99.90;;;;;;7384348;19;20022;-83
2023/11/09 01:42:06;;;;;;;5.18;3.97;;;10.00;99.90;;;;;;7385759;19;20014;-84
2023/11/09 01:44:33;;;;;;;6.65;3.42;;;10.00;99.90;;;;;;7386313;19;20014;-84
2023/11/09 01:47:01;;;;;;;5.20;3.40;;;10.00;99.90;;;;;;7383459;19;20692;-83
2023/11/09 01:49:30;;;;;;;5.35;3.60;;;10.00;99.90;;;;;;7382562;19;20029;-83
2023/11/09 01:51:56;;;;;;;4.60;3.45;;;10.00;99.90;;;;;;7384773;19;20119;-83
2023/11/09 01:54:23;;;;;;;4.93;3.00;;;10.00;99.90;;;;;;7382188;19;20018;-83
2023/11/09 01:56:50;;;;;;;5.50;2.97;;;10.00;99.90;;;;;;7381421;19;20025;-83
2023/11/09 01:59:17;;;;;;;4.70;2.92;;;10.00;99.90;;;;;;7373410;19;20018;-83
2023/11/09 02:01:46;;;;;;;4.88;3.13;;;10.00;99.90;;;;;;7382563;19;20026;-83
2023/11/09 02:04:13;;;;;;;3.70;2.58;;;10.00;99.90;;;;;;7377826;19;20681;-84
2023/11/09 02:06:42;;;;;;;3.85;2.63;;;10.00;99.90;;;;;;7385903;19;20085;-83
2023/11/09 02:09:12;;;;;;;3.85;2.80;;;10.00;99.90;;;;;;7375344;19;20014;-84
2023/11/09 02:11:39;;;;;;;4.18;3.00;;;10.00;99.90;;;;;;7383085;19;20379;-83
2023/11/09 02:14:05;;;;;;;5.07;3.10;;;10.00;99.90;;;;;;7381139;19;20788;-83
2023/11/09 02:16:33;;;;;;;5.05;3.80;;;10.00;99.90;;;;;;7371318;19;20015;-83
2023/11/09 02:19:00;;;;;;;4.63;3.10;;;10.00;99.90;;;;;;7375601;19;20015;-82
2023/11/09 02:21:28;;;;;;;4.35;3.20;;;10.00;99.90;;;;;;7368803;19;20023;-83
2023/11/09 02:23:57;;;;;;;3.92;3.22;;;10.00;99.90;;;;;;7369308;19;20015;-83
2023/11/09 02:26:24;;;;;;;5.65;3.28;;;10.00;99.90;;;;;;7371390;19;20018;-82
2023/11/09 02:28:52;;;;;;;5.90;3.63;;;10.00;99.90;;;;;;7370743;19;20018;-83
2023/11/09 02:31:19;;;;;;;4.20;3.47;;;10.00;99.90;;;;;;7369440;19;20052;-83
2023/11/09 02:33:46;;;;;;;8.00;3.63;;;10.00;99.90;;;;;;7377164;19;20018;-83
2023/11/09 02:36:13;;;;;;;4.22;3.13;;;10.00;99.90;;;;;;7372955;19;20021;-83
2023/11/09 02:38:39;;;;;;;6.57;3.78;;;10.00;99.90;;;;;;7370100;19;20654;-83
2023/11/09 02:41:08;;;;;;;4.47;3.30;;;10.00;99.90;;;;;;7372138;19;20018;-83
2023/11/09 02:43:40;;;;;;;6.03;3.22;;;10.00;99.90;;;;;;7372878;19;20124;-83
2023/11/09 02:46:10;;;;;;;5.55;3.38;;;10.00;99.90;;;;;;7372511;19;20345;-82
2023/11/09 02:48:36;;;;;;;5.35;4.03;;;10.00;99.90;;;;;;7372520;19;20015;-83
2023/11/09 02:51:04;;;;;;;6.10;3.90;;;10.00;99.90;;;;;;7372659;19;20035;-82
2023/11/09 02:53:31;;;;;;;5.72;3.33;;;10.00;99.90;;;;;;7372654;19;20019;-83
2023/11/09 02:55:58;;;;;;;5.60;3.17;;;10.00;99.90;;;;;;7368379;19;20027;-83
2023/11/09 02:58:24;;;;;;;5.90;3.58;;;10.00;99.90;;;;;;7371727;19;20927;-83
2023/11/09 03:00:50;;;;;;;5.55;3.00;;;10.00;99.90;;;;;;7364911;19;20041;-82
2023/11/09 03:03:17;;;;;;;4.75;3.42;;;10.00;99.90;;;;;;7370868;19;20014;-83
2023/11/09 03:05:44;;;;;;;5.32;3.50;;;10.00;99.90;;;;;;7373762;19;20015;-83
2023/11/09 03:08:10;;;;;;;5.43;3.72;;;10.00;99.90;;;;;;7370053;19;20018;-83
2023/11/09 03:10:36;;;;;;;4.80;3.42;;;10.00;99.90;;;;;;7369318;19;20014;-83
2023/11/09 03:13:02;;;;;;;5.05;3.53;;;10.00;99.90;;;;;;7370678;19;20031;-82
2023/11/09 03:15:29;;;;;;;5.53;3.78;;;10.00;99.90;;;;;;7369497;19;20034;-83
2023/11/09 03:17:55;;;;;;;5.05;3.78;;;10.00;99.90;;;;;;7373374;19;20023;-83
2023/11/09 03:20:25;;;;;;;5.68;4.13;;;10.00;99.90;;;;;;7372490;19;20107;-83
2023/11/09 03:22:52;;;;;;;7.13;3.40;;;10.00;99.90;;;;;;7370111;19;20035;-82
2023/11/09 03:25:19;;;;;;;5.32;3.40;;;10.00;99.90;;;;;;7368377;19;20014;-83
2023/11/09 03:27:47;;;;;;;3.88;3.08;;;10.00;99.90;;;;;;7372439;19;20495;-83
2023/11/09 03:30:13;;;;;;;4.22;3.28;;;10.00;99.90;;;;;;7369630;19;20026;-82
2023/11/09 03:32:40;;;;;;;4.88;3.67;;;10.00;99.90;;;;;;7369268;19;20018;-83
2023/11/09 03:35:07;;;;;;;4.55;3.30;;;10.00;99.90;;;;;;7371357;19;20021;-82
2023/11/09 03:37:35;;;;;;;4.22;2.97;;;10.00;99.90;;;;;;7370243;19;20026;-83
2023/11/09 03:40:06;;;;;;;5.10;3.35;;;10.00;99.90;;;;;;7371358;19;20074;-83
2023/11/09 03:42:33;;;;;;;4.40;2.90;;;10.00;99.90;;;;;;7369576;19;20014;-83
2023/11/09 03:44:59;;;;;;;4.25;3.25;;;10.00;99.90;;;;;;7370467;19;20616;-82
2023/11/09 03:47:26;;;;;;;3.42;2.33;;;10.00;99.90;;;;;;7370229;19;20026;-83
2023/11/09 03:49:52;;;;;;;4.20;2.50;;;10.00;99.90;;;;;;7370087;19;20015;-83
2023/11/09 03:52:18;;;;;;;3.60;2.83;;;10.00;99.90;;;;;;7369273;19;20029;-83
2023/11/09 03:54:45;;;;;;;3.53;2.70;;;10.00;99.90;;;;;;7369942;19;20026;-83
2023/11/09 03:57:12;;;;;;;3.78;3.00;;;10.00;99.90;;;;;;7370136;19;20483;-83
2023/11/09 03:59:38;;;;;;;3.92;2.88;;;10.00;99.90;;;;;;7366645;19;20099;-83
2023/11/09 04:02:04;;;;;;;3.00;2.50;;;9.90;99.90;;;;;;7368589;19;20019;-83
2023/11/09 04:04:30;;;;;;;3.45;2.30;;;10.00;99.90;;;;;;7368025;19;20022;-83
2023/11/09 04:06:58;;;;;;;3.42;2.58;;;10.00;99.90;;;;;;7368164;19;20015;-83
2023/11/09 04:09:24;;;;;;;4.28;2.95;;;10.00;99.90;;;;;;7370601;19;20019;-83
2023/11/09 04:11:50;;;;;;;3.40;2.58;;;10.00;99.90;;;;;;7369332;19;20018;-83
2023/11/09 04:14:17;;;;;;;4.63;3.10;;;10.00;99.90;;;;;;7370133;19;20018;-83
2023/11/09 04:16:44;;;;;;;4.95;3.03;;;10.00;99.90;;;;;;7369797;19;20932;-83
2023/11/09 04:19:10;;;;;;;4.38;3.05;;;10.00;99.90;;;;;;7368663;19;20026;-83
2023/11/09 04:21:37;;;;;;;6.20;3.75;;;10.00;99.90;;;;;;7367896;19;20030;-82
2023/11/09 04:24:07;;;;;;;5.55;3.78;;;10.00;99.90;;;;;;7369019;19;20105;-83
2023/11/09 04:26:33;;;;;;;8.50;4.20;;;10.00;99.90;;;;;;7367352;19;20025;-83
2023/11/09 04:29:03;;;;;;;6.57;5.28;;;10.10;99.90;;;;;;7368141;19;20029;-83
2023/11/09 04:31:31;;;;;;;5.45;4.88;;;10.10;99.90;;;;;;7366749;19;20010;-83
2023/11/09 04:34:08;;;;;;;7.95;5.95;;;10.00;99.90;;;;;;7367590;19;20081;-83
2023/11/09 04:36:49;;;;;;;7.70;6.20;;;10.10;99.90;;;;;;7363805;19;20023;-83
2023/11/09 04:39:27;;;;;;;6.90;6.18;;;10.10;99.90;;;;;;7364097;19;20023;-83
2023/11/09 04:42:19;;;;;;;8.52;7.00;;;10.10;99.90;;;;;;7368848;19;20010;-82
2023/11/09 04:44:46;;;;;;;8.75;6.63;;;10.10;99.90;;;;;;7367803;19;20022;-83
2023/11/09 04:47:14;;;;;;;9.05;6.53;;;10.10;99.90;;;;;;7369798;19;20018;-82
2023/11/09 04:49:45;;;;;;;8.15;7.15;;;10.10;99.90;;;;;;7367328;19;20484;-83
2023/11/09 04:52:15;;;;;;;8.93;8.02;;;10.10;99.90;;;;;;7369504;19;20084;-83
2023/11/09 04:54:45;;;;;;;9.23;7.97;;;10.10;99.90;;;;;;7370089;19;20086;-83
2023/11/09 05:07:55;;;;;;;10.68;8.60;;;10.10;99.90;;;;;;7367884;19;20045;-82
2023/11/09 05:10:21;;;;;;;9.20;8.20;;;10.20;99.90;;;;;;7369155;19;20022;-83
2023/11/09 05:12:47;;;;;;;10.52;8.70;;;10.30;99.90;;;;;;7368663;19;20032;-83
2023/11/09 05:15:14;;;;;;;10.60;9.05;;;10.20;99.90;;;;;;7370017;19;20289;-82
2023/11/09 05:17:41;;;;;;;9.02;8.10;;;10.20;99.90;;;;;;7367865;19;20464;-82
2023/11/09 05:20:11;;;;;;;9.93;8.90;;;10.20;99.90;;;;;;7368703;19;20497;-83
2023/11/09 05:22:37;;;;;;;11.45;9.05;;;10.30;99.90;;;;;;7366038;19;20023;-82
2023/11/09 05:25:05;;;;;;;10.55;8.70;;;10.30;99.90;;;;;;7366844;19;20106;-83
2023/11/09 05:27:31;;;;;;;9.18;8.27;;;10.30;99.90;;;;;;7367206;19;20056;-83
2023/11/09 05:29:58;;;;;;;9.02;8.13;;;10.30;99.90;;;;;;7369160;19;20018;-83
2023/11/09 05:32:24;;;;;;;9.18;8.27;;;10.30;99.90;;;;;;7364221;19;20076;-83
2023/11/09 05:34:51;;;;;;;10.50;8.98;;;10.30;99.90;;;;;;7365286;19;20489;-81
2023/11/09 05:37:17;;;;;;;12.43;11.10;;;10.30;99.90;;;;;;7367272;19;20025;-82
2023/11/09 05:39:46;;;;;;;9.63;8.63;;;10.40;99.90;;;;;;7365064;19;20018;-82
2023/11/09 05:42:12;;;;;;;11.35;10.20;;;10.40;99.90;;;;;;7369956;19;20019;-81
2023/11/09 05:44:39;;;;;;;12.52;10.00;;;10.40;99.90;;;;;;7366060;19;20352;-82
2023/11/09 05:47:05;;;;;;;10.30;9.23;;;10.40;99.90;;;;;;7370987;19;20035;-81
2023/11/09 05:49:31;;;;;;;11.45;10.35;;;10.40;99.90;;;;;;7367013;19;20621;-81
2023/11/09 05:51:57;;;;;;;10.75;9.68;;;10.40;99.90;;;;;;7374229;19;20713;-82
2023/11/09 05:54:24;;;;;;;11.38;9.40;;;10.40;99.90;;;;;;7369070;19;20078;-81
2023/11/09 05:56:50;;;;;;;13.45;10.43;;;10.40;99.90;;;;;;7374182;19;20443;-82
2023/11/09 05:59:17;;;;;;;12.13;10.93;;;10.40;99.90;;;;;;7370755;19;20046;-81
2023/11/09 06:01:44;;;;;;;12.18;10.63;;;10.40;99.90;;;;;;7375358;19;20011;-82
2023/11/09 06:04:11;;;;;;;12.13;10.75;;;10.40;99.90;;;;;;7368293;19;20040;-82
2023/11/09 06:06:38;;;;;;;12.93;10.93;;;10.40;99.90;;;;;;7374408;19;20015;-81
2023/11/09 06:09:06;;;;;;;12.85;11.45;;;10.50;99.90;;;;;;7368471;19;20077;-82
2023/11/09 06:11:33;;;;;;;12.38;10.98;;;10.40;99.90;;;;;;7375181;19;20014;-82
2023/11/09 06:13:59;;;;;;;12.68;11.35;;;10.40;99.90;;;;;;7371973;19;20097;-83
2023/11/09 06:16:25;;;;;;;13.88;12.48;;;10.40;99.90;;;;;;7374174;19;20022;-82
2023/11/09 06:18:53;;;;;;;13.43;11.52;;;10.40;99.90;;;;;;7372739;19;20018;-82
2023/11/09 06:21:21;;;;;;;14.05;11.10;;;10.50;99.90;;;;;;7377418;19;20074;-81
2023/11/09 06:23:50;;;;;;;13.07;10.93;;;10.40;99.90;;;;;;7371982;19;20015;-81
2023/11/09 06:26:22;;;;;;;11.57;9.50;;;10.40;99.90;;;;;;7376099;19;20026;-81
2023/11/09 06:28:51;;;;;;;11.10;9.65;;;10.40;99.90;;;;;;7373327;19;20492;-82
2023/11/09 06:31:18;;;;;;;14.57;9.68;;;10.30;99.90;;;;;;7371738;19;20094;-82
2023/11/09 06:33:44;;;;;;;14.95;7.88;;;10.30;99.90;;;;;;7371993;19;20362;-77
2023/11/09 06:36:13;;;;;;;11.85;7.60;;;10.30;99.90;;;;;;7372712;19;20094;-77
2023/11/09 06:38:39;;;;;;;11.60;7.47;;;10.20;99.90;;;;;;7369068;19;21098;-78
2023/11/09 06:41:07;;;;;;;12.77;6.40;;;10.30;99.90;;;;;;7369595;19;20022;-78
2023/11/09 06:43:35;;;;;;;10.95;5.57;;;10.10;99.90;;;;;;7367819;19;20029;-79
2023/11/09 06:46:01;;;;;;;14.80;5.82;;;10.10;99.90;;;;;;7373654;19;20018;-78
2023/11/09 06:48:28;;;;;;;15.10;6.93;;;10.10;99.90;;;;;;7370034;19;20030;-78
2023/11/09 06:50:54;;;;;;;16.73;6.95;;;10.00;99.90;;;;;;7374367;19;20026;-79
2023/11/09 06:53:22;;;;;;;17.13;6.38;;;10.00;99.90;;;;;;7371729;19;20022;-77
2023/11/09 06:55:48;;;;;;;22.08;6.35;;;9.90;99.90;;;;;;7370297;19;20074;-78
2023/11/09 06:58:14;;;;;;;18.42;5.72;;;9.90;99.90;;;;;;7370064;19;20023;-78
2023/11/09 07:00:41;;;;;;;16.20;4.75;;;9.90;99.90;;;;;;7367400;19;20114;-78
2023/11/09 07:03:07;;;;;;;16.88;4.22;;;9.80;99.90;;;;;;7363600;19;20026;-77
2023/11/09 07:05:34;;;;;;;14.52;4.93;;;9.70;99.90;;;;;;7369100;19;20020;-78
2023/11/09 07:08:00;;;;;;;17.25;4.50;;;9.60;99.90;;;;;;7371041;19;20455;-77
2023/11/09 07:10:27;;;;;;;19.48;4.07;;;9.60;99.90;;;;;;7366971;19;20022;-78
2023/11/09 07:12:53;;;;;;;16.10;4.45;;;9.50;99.90;;;;;;7369861;19;20018;-78
2023/11/09 07:15:19;;;;;;;15.70;4.75;;;9.50;99.90;;;;;;7366483;19;20022;-78
2023/11/09 07:17:45;;;;;;;18.70;3.63;;;9.50;99.90;;;;;;7363681;19;21338;-78
2023/11/09 07:20:12;;;;;;;16.23;4.00;;;9.50;99.90;;;;;;7365946;19;20018;-79
2023/11/09 07:22:38;;;;;;;13.35;3.65;;;9.50;99.90;;;;;;7360304;19;20794;-78
2023/11/09 07:25:08;;;;;;;12.77;3.95;;;9.40;99.90;;;;;;7366118;19;20026;-78
2023/11/09 07:27:35;;;;;;;14.65;4.07;;;9.50;99.90;;;;;;7359876;19;20093;-78
2023/11/09 07:30:02;;;;;;;63.60;35.60;;;9.40;99.90;;;;;;7361233;19;20094;-78
2023/11/09 07:32:31;;;;;;;30.25;12.60;;;9.50;99.90;;;;;;7360504;19;20022;-77
2023/11/09 07:34:57;;;;;;;54.92;35.53;;;9.50;99.90;;;;;;7365167;19;20022;-77
2023/11/09 07:37:23;;;;;;;24.17;10.07;;;9.40;99.90;;;;;;7361638;19;20029;-78
2023/11/09 07:39:50;;;;;;;28.38;15.48;;;9.40;99.90;;;;;;7366451;19;20021;-78
2023/11/09 07:42:16;;;;;;;14.05;4.43;;;9.50;99.90;;;;;;7362097;19;20014;-78
2023/11/09 07:44:42;;;;;;;15.75;5.55;;;9.40;99.90;;;;;;7364833;19;20491;-78
2023/11/09 07:47:13;;;;;;;12.68;4.28;;;9.40;99.90;;;;;;7365214;19;20387;-78
2023/11/09 07:49:39;;;;;;;15.45;4.57;;;9.40;99.90;;;;;;7364043;19;20679;-78
2023/11/09 07:52:06;;;;;;;21.63;5.65;;;9.40;99.90;;;;;;7361939;19;20018;-78
2023/11/09 07:54:32;;;;;;;137.55;109.75;;;9.40;99.90;;;;;;7360971;19;20018;-78
2023/11/09 07:57:01;;;;;;;87.35;57.40;;;9.40;99.90;;;;;;7367697;19;20023;-78
2023/11/09 07:59:27;;;;;;;28.27;16.52;;;9.40;99.90;;;;;;7364725;19;20030;-78
2023/11/09 08:01:53;;;;;;;14.68;4.30;;;9.40;99.90;;;;;;7366524;19;20039;-79
2023/11/09 08:04:21;;;;;;;19.85;6.22;;;9.40;99.90;;;;;;7362253;19;20098;-78
2023/11/09 08:06:47;;;;;;;16.83;4.45;;;9.40;99.90;;;;;;7369147;19;20103;-78
2023/11/09 08:09:15;;;;;;;15.52;5.55;;;9.40;99.90;;;;;;7366523;19;20141;-78
2023/11/09 08:11:43;;;;;;;13.43;5.95;;;9.50;99.90;;;;;;7367747;19;20010;-78
2023/11/09 08:14:09;;;;;;;18.33;5.60;;;9.50;99.90;;;;;;7359737;19;20045;-78
2023/11/09 08:16:36;;;;;;;15.40;5.88;;;9.50;99.90;;;;;;7368061;19;20609;-79
2023/11/09 08:19:03;;;;;;;13.38;3.78;;;9.60;99.90;;;;;;7365875;19;20022;-79
2023/11/09 08:21:33;;;;;;;294.95;261.00;;;9.70;99.90;;;;;;7366220;19;20030;-78
2023/11/09 08:24:01;;;;;;;69.35;49.75;;;9.70;99.90;;;;;;7360822;19;20105;-79
2023/11/09 08:26:29;;;;;;;40.70;23.33;;;9.80;99.90;;;;;;7366850;19;20035;-80
2023/11/09 08:28:57;;;;;;;15.65;4.97;;;9.90;99.90;;;;;;7364580;19;20018;-79
2023/11/09 08:31:25;;;;;;;18.10;9.55;;;9.90;99.90;;;;;;7366198;19;20026;-78
2023/11/09 08:33:54;;;;;;;12.73;3.78;;;10.00;99.90;;;;;;7364578;19;20052;-79
2023/11/09 08:36:21;;;;;;;14.02;4.50;;;10.00;99.90;;;;;;7368449;19;20040;-79
2023/11/09 08:38:47;;;;;;;15.20;6.93;;;10.10;99.90;;;;;;7361935;19;20791;-78
2023/11/09 08:41:15;;;;;;;18.10;6.80;;;10.20;99.90;;;;;;7367480;19;20030;-79
2023/11/09 08:43:41;;;;;;;15.70;5.95;;;10.20;99.90;;;;;;7361227;19;20011;-79
2023/11/09 08:46:08;;;;;;;14.35;6.07;;;10.40;99.90;;;;;;7366799;19;20022;-80
2023/11/09 08:48:37;;;;;;;12.52;5.45;;;10.40;99.90;;;;;;7367203;19;20850;-80
2023/11/09 08:51:07;;;;;;;14.90;4.57;;;10.50;99.90;;;;;;7365128;19;20022;-79
2023/11/09 08:53:33;;;;;;;22.63;13.10;;;10.60;99.90;;;;;;7366236;19;20026;-80
2023/11/09 08:56:01;;;;;;;15.73;6.82;;;10.70;99.90;;;;;;7363617;19;20018;-80
2023/11/09 08:58:28;;;;;;;21.92;11.98;;;10.80;99.90;;;;;;7367358;19;20018;-78
2023/11/09 09:01:01;;;;;;;13.18;5.18;;;10.80;99.90;;;;;;7362605;19;20030;-79
2023/11/09 09:03:32;;;;;;;13.55;6.78;;;10.70;99.90;;;;;;7363927;19;20019;-79
2023/11/09 09:06:00;;;;;;;61.10;49.75;;;10.70;99.90;;;;;;7363130;19;20121;-79
2023/11/09 09:08:29;;;;;;;74.90;50.83;;;10.80;99.90;;;;;;7364613;19;20018;-79
2023/11/09 09:10:56;;;;;;;44.05;29.85;;;11.00;99.90;;;;;;7363033;19;20017;-79
2023/11/09 09:13:23;;;;;;;21.92;11.15;;;11.00;99.90;;;;;;7360539;19;20007;-79
2023/11/09 09:15:49;;;;;;;17.13;8.20;;;10.80;99.90;;;;;;7366547;19;20034;-80
2023/11/09 09:18:16;;;;;;;16.42;8.30;;;10.80;99.90;;;;;;7366704;19;20064;-79
2023/11/09 09:20:43;;;;;;;15.25;10.00;;;10.70;99.90;;;;;;7362517;19;20034;-80
2023/11/09 09:23:10;;;;;;;20.15;8.50;;;10.50;99.90;;;;;;7360615;19;20094;-80
2023/11/09 09:25:38;;;;;;;14.45;7.82;;;10.40;99.90;;;;;;7366481;19;20566;-81
2023/11/09 09:28:09;;;;;;;15.10;8.48;;;10.30;99.90;;;;;;7369286;19;20018;-81
2023/11/09 09:30:37;;;;;;;20.60;10.10;;;10.30;99.90;;;;;;7365937;19;20016;-80
2023/11/09 09:33:03;;;;;;;16.00;9.90;;;10.30;99.90;;;;;;7371942;19;20517;-79
2023/11/09 09:35:33;;;;;;;29.40;18.77;;;10.50;99.90;;;;;;7370428;19;20021;-81
2023/11/09 09:38:00;;;;;;;65.45;48.67;;;10.60;99.90;;;;;;7368952;19;20603;-81
2023/11/09 09:40:29;;;;;;;37.03;23.08;;;10.70;99.90;;;;;;7368709;19;20022;-82
2023/11/09 09:42:57;;;;;;;34.78;24.75;;;10.80;99.90;;;;;;7368030;19;20098;-82
2023/11/09 09:45:30;;;;;;;20.63;10.75;;;10.80;99.90;;;;;;7369587;19;20671;-81
2023/11/09 09:48:01;;;;;;;17.75;9.85;;;10.90;99.90;;;;;;7369692;19;20027;-81
2023/11/09 09:50:39;;;;;;;19.98;9.18;;;11.10;99.90;;;;;;7367723;19;20022;-81
2023/11/09 09:53:09;;;;;;;20.08;10.30;;;11.10;99.90;;;;;;7372427;19;20014;-81
2023/11/09 09:55:37;;;;;;;21.42;11.20;;;11.20;99.90;;;;;;7366936;19;20094;-82
2023/11/09 09:58:08;;;;;;;16.50;8.30;;;11.20;99.90;;;;;;7368901;19;20343;-80
2023/11/09 10:00:38;;;;;;;12.85;6.40;;;11.30;99.90;;;;;;7369359;19;20483;-78
2023/11/09 10:03:06;;;;;;;18.23;9.20;;;11.20;99.90;;;;;;7365963;19;20019;-80
2023/11/09 10:05:34;;;;;;;10.55;4.95;;;11.20;99.90;;;;;;7366705;19;20018;-80
2023/11/09 10:08:12;;;;;;;16.33;6.22;;;11.10;99.90;;;;;;7369702;19;20018;-80
2023/11/09 10:10:47;;;;;;;18.90;5.28;;;11.00;99.90;;;;;;7365794;19;21463;-80
2023/11/09 10:13:14;;;;;;;14.73;4.78;;;10.90;99.90;;;;;;7365866;19;20383;-81
2023/11/09 10:15:43;;;;;;;15.77;4.45;;;10.80;99.90;;;;;;7366514;19;20018;-80
2023/11/09 10:18:11;;;;;;;13.98;5.13;;;10.70;99.90;;;;;;7371399;19;20034;-80
2023/11/09 10:20:42;;;;;;;15.55;5.15;;;10.60;99.90;;;;;;7369366;19;20018;-78
2023/11/09 10:23:14;;;;;;;14.40;4.75;;;10.60;99.90;;;;;;7371458;19;20864;-79
2023/11/09 10:25:41;;;;;;;20.27;5.60;;;10.60;99.90;;;;;;7371793;19;20763;-80
2023/11/09 10:28:13;;;;;;;52.47;32.67;;;10.60;99.90;;;;;;7370909;19;20093;-79
2023/11/09 10:30:44;;;;;;;20.60;10.18;;;10.70;99.90;;;;;;7369226;19;20022;-80
2023/11/09 10:33:13;;;;;;;24.55;11.95;;;10.80;99.90;;;;;;7365626;19;20029;-80
2023/11/09 10:35:40;;;;;;;15.35;4.68;;;11.00;99.90;;;;;;7370986;19;20021;-80
2023/11/09 10:38:09;;;;;;;18.70;6.05;;;11.70;99.90;;;;;;7365349;19;20082;-80
2023/11/09 10:40:36;;;;;;;18.70;8.85;;;12.30;99.90;;;;;;7373419;19;20021;-80
2023/11/09 10:43:05;;;;;;;14.90;5.90;;;13.10;99.90;;;;;;7367265;19;20014;-81
2023/11/09 10:45:38;;;;;;;16.40;5.57;;;13.70;99.90;;;;;;7368221;19;20011;-80
2023/11/09 10:48:17;;;;;;;11.43;4.07;;;14.20;99.90;;;;;;7368866;19;20045;-80
2023/11/09 10:50:48;;;;;;;14.30;4.40;;;14.60;99.90;;;;;;7368344;19;20039;-80
2023/11/09 10:53:20;;;;;;;29.57;15.63;;;15.40;99.90;;;;;;7370661;19;20026;-82
2023/11/09 10:55:54;;;;;;;23.30;12.38;;;16.00;99.90;;;;;;7365119;19;20286;-81
2023/11/09 10:58:21;;;;;;;12.07;4.13;;;16.50;99.90;;;;;;7371721;19;20871;-80
2023/11/09 11:00:58;;;;;;;23.73;11.48;;;16.80;99.90;;;;;;7373106;19;20025;-83
2023/11/09 11:03:29;;;;;;;12.38;3.85;;;17.10;99.90;;;;;;7371252;19;20358;-81
2023/11/09 11:06:02;;;;;;;16.65;6.22;;;17.20;99.90;;;;;;7367906;19;20048;-81
2023/11/09 11:08:38;;;;;;;16.45;5.10;;;18.00;99.90;;;;;;7367129;19;20502;-81
2023/11/09 11:11:07;;;;;;;15.82;5.10;;;18.20;99.90;;;;;;7368300;19;20049;-82
2023/11/09 11:13:36;;;;;;;13.15;6.03;;;18.30;99.90;;;;;;7368025;19;20035;-82
2023/11/09 11:16:17;;;;;;;19.55;8.55;;;17.40;99.90;;;;;;7365677;19;20022;-82
2023/11/09 11:19:22;;;;;;;13.93;8.70;;;16.60;99.90;;;;;;7369778;19;20018;-81
2023/11/09 11:22:01;;;;;;;12.40;3.25;;;15.60;99.90;;;;;;7367814;19;20094;-80
2023/11/09 11:24:56;;;;;;;14.05;7.18;;;14.80;99.90;;;;;;7363594;19;20125;-82
2023/11/09 11:27:37;;;;;;;18.08;6.13;;;14.40;99.90;;;;;;7364522;19;20055;-81
2023/11/09 11:30:23;;;;;;;14.77;4.10;;;14.20;99.90;;;;;;7366789;19;20023;-82
2023/11/09 11:32:56;;;;;;;11.88;3.72;;;13.70;99.90;;;;;;7366841;19;20050;-81
2023/11/09 11:35:42;;;;;;;13.93;4.00;;;13.50;99.90;;;;;;7365042;19;20347;-82
2023/11/09 11:38:18;;;;;;;20.33;10.25;;;13.10;99.90;;;;;;7368526;19;20014;-82
2023/11/09 11:40:45;;;;;;;17.77;5.15;;;12.80;99.90;;;;;;7360660;19;20023;-81
2023/11/09 11:43:14;;;;;;;27.33;12.43;;;12.80;99.90;;;;;;7365636;19;20022;-82
2023/11/09 11:45:41;;;;;;;18.88;7.35;;;13.40;99.90;;;;;;7365831;19;20022;-82
2023/11/09 11:48:22;;;;;;;18.73;10.68;;;14.00;99.90;;;;;;7365919;19;20015;-83
2023/11/09 11:50:50;;;;;;;22.67;12.38;;;14.50;99.90;;;;;;7367418;19;20018;-82
2023/11/09 11:53:31;;;;;;;22.13;10.95;;;14.90;99.90;;;;;;7370043;19;20035;-81
2023/11/09 11:55:57;;;;;;;21.90;6.95;;;14.40;99.90;;;;;;7366203;19;20022;-82
2023/11/09 11:58:27;;;;;;;14.27;4.35;;;14.00;99.90;;;;;;7365873;19;20023;-83
2023/11/09 12:00:55;;;;;;;24.15;11.25;;;13.60;99.90;;;;;;7363236;19;20030;-82
2023/11/09 12:03:24;;;;;;;27.92;17.45;;;13.50;99.90;;;;;;7366194;19;20015;-82
2023/11/09 12:05:57;;;;;;;21.35;8.10;;;13.50;99.90;;;;;;7362843;19;20630;-82
2023/11/09 12:08:23;;;;;;;14.65;6.07;;;13.20;99.90;;;;;;7367536;19;20034;-82
2023/11/09 12:10:52;;;;;;;18.88;6.85;;;13.40;99.90;;;;;;7366599;19;20022;-82
2023/11/09 12:13:21;;;;;;;14.75;6.25;;;13.60;99.90;;;;;;7364208;19;20117;-82
2023/11/09 12:15:47;;;;;;;18.08;7.57;;;13.90;99.90;;;;;;7365410;19;20018;-82
2023/11/09 12:18:14;;;;;;;18.58;7.18;;;14.00;99.90;;;;;;7364962;19;20909;-82
2023/11/09 12:20:40;;;;;;;21.50;9.23;;;14.00;99.90;;;;;;7364772;19;20024;-82
2023/11/09 12:23:07;;;;;;;18.50;6.47;;;14.10;99.90;;;;;;7363587;19;20006;-82
2023/11/09 12:25:53;;;;;;;16.70;6.15;;;14.10;99.90;;;;;;7363071;19;20018;-82
2023/11/09 12:28:22;;;;;;;13.48;5.07;;;14.20;99.90;;;;;;7363949;19;20094;-82
2023/11/09 12:30:49;;;;;;;13.85;5.20;;;14.00;99.90;;;;;;7362935;19;20022;-81
2023/11/09 12:33:17;;;;;;;17.63;5.22;;;14.00;99.90;;;;;;7364434;19;20054;-81
2023/11/09 12:36:04;;;;;;;16.88;5.47;;;14.20;99.90;;;;;;7365446;19;20523;-81
2023/11/09 12:38:33;;;;;;;15.43;4.90;;;14.50;99.90;;;;;;7364381;19;20372;-81
2023/11/09 12:41:02;;;;;;;14.88;5.28;;;14.70;99.90;;;;;;7362919;19;20029;-82
2023/11/09 12:43:36;;;;;;;13.15;5.15;;;14.80;99.90;;;;;;7366058;19;20019;-81
2023/11/09 12:46:05;;;;;;;14.32;5.38;;;14.60;99.90;;;;;;7364592;19;20010;-81
2023/11/09 12:48:38;;;;;;;11.75;5.15;;;14.40;99.90;;;;;;7368420;19;20010;-82
2023/11/09 12:51:04;;;;;;;12.30;4.97;;;14.20;99.90;;;;;;7358231;19;20022;-81
2023/11/09 12:53:33;;;;;;;13.68;4.78;;;14.10;99.90;;;;;;7367904;19;20047;-81
2023/11/09 12:56:02;;;;;;;12.68;4.38;;;13.90;99.90;;;;;;7360538;19;20015;-81
2023/11/09 12:58:29;;;;;;;14.10;4.72;;;13.80;99.90;;;;;;7363809;19;20014;-82